sensor_id;sensor_type;location;lat;lon;timestamp;P1;P2;P0
21358;PMS7003;13506;50.852;20.632;2023-02-01T00:00:52;11.00;9.00;4.00
21358;PMS7003;13506;50.852;20.632;2023-02-01T00:03:27;11.00;11.00;5.75
21358;PMS7003;13506;50.852;20.632;2023-02-01T00:05:55;11.50;8.75;4.00
21358;PMS7003;13506;50.852;20.632;2023-02-01T00:08:23;8.25;6.00;3.00
21358;PMS7003;13506;50.852;20.632;2023-02-01T00:10:57;11.50;9.75;4.00
21358;PMS7003;13506;50.852;20.632;2023-02-01T00:13:27;9.00;9.00;3.75
21358;PMS7003;13506;50.852;20.632;2023-02-01T00:16:01;7.50;7.50;3.00
21358;PMS7003;13506;50.852;20.632;2023-02-01T00:18:32;9.80;7.20;3.00
21358;PMS7003;13506;50.852;20.632;2023-02-01T00:21:00;7.25;7.00;2.50
21358;PMS7003;13506;50.852;20.632;2023-02-01T00:23:28;10.00;8.25;2.50
21358;PMS7003;13506;50.852;20.632;2023-02-01T00:26:00;8.00;8.00;3.00
21358;PMS7003;13506;50.852;20.632;2023-02-01T00:28:29;9.50;8.00;4.50
21358;PMS7003;13506;50.852;20.632;2023-02-01T00:30:57;8.25;6.50;3.00
21358;PMS7003;13506;50.852;20.632;2023-02-01T00:33:25;7.50;7.50;2.50
21358;PMS7003;13506;50.852;20.632;2023-02-01T00:35:57;6.25;6.25;2.50
21358;PMS7003;13506;50.852;20.632;2023-02-01T00:38:25;8.25;6.50;1.00
21358;PMS7003;13506;50.852;20.632;2023-02-01T00:40:54;7.75;6.50;3.00
21358;PMS7003;13506;50.852;20.632;2023-02-01T00:43:29;7.00;6.50;1.50
21358;PMS7003;13506;50.852;20.632;2023-02-01T00:45:58;7.50;7.50;2.50
21358;PMS7003;13506;50.852;20.632;2023-02-01T00:48:26;6.00;6.00;1.50
21358;PMS7003;13506;50.852;20.632;2023-02-01T00:50:59;7.00;6.00;2.00
21358;PMS7003;13506;50.852;20.632;2023-02-01T00:53:28;6.00;6.00;2.50
21358;PMS7003;13506;50.852;20.632;2023-02-01T00:55:57;8.25;8.00;3.00
21358;PMS7003;13506;50.852;20.632;2023-02-01T00:58:25;6.00;4.75;1.00
21358;PMS7003;13506;50.852;20.632;2023-02-01T01:01:00;8.00;8.00;3.00
21358;PMS7003;13506;50.852;20.632;2023-02-01T01:03:30;8.25;8.25;3.50
21358;PMS7003;13506;50.852;20.632;2023-02-01T01:06:01;6.00;6.00;3.00
21358;PMS7003;13506;50.852;20.632;2023-02-01T01:08:32;6.00;6.00;2.00
21358;PMS7003;13506;50.852;20.632;2023-02-01T01:11:03;6.00;6.00;1.00
21358;PMS7003;13506;50.852;20.632;2023-02-01T01:13:32;4.75;4.75;1.00
21358;PMS7003;13506;50.852;20.632;2023-02-01T01:16:00;4.25;3.75;0.75
21358;PMS7003;13506;50.852;20.632;2023-02-01T01:18:29;9.25;6.75;2.50
21358;PMS7003;13506;50.852;20.632;2023-02-01T01:20:58;5.25;5.25;1.00
21358;PMS7003;13506;50.852;20.632;2023-02-01T01:23:28;8.00;6.50;1.00
21358;PMS7003;13506;50.852;20.632;2023-02-01T01:25:56;3.00;3.00;0.75
21358;PMS7003;13506;50.852;20.632;2023-02-01T01:28:23;6.00;5.25;0.50
21358;PMS7003;13506;50.852;20.632;2023-02-01T01:30:52;4.00;3.25;0.50
21358;PMS7003;13506;50.852;20.632;2023-02-01T01:33:20;5.50;5.00;0.75
21358;PMS7003;13506;50.852;20.632;2023-02-01T01:35:47;3.25;3.25;0.00
21358;PMS7003;13506;50.852;20.632;2023-02-01T01:38:17;4.00;4.00;0.00
21358;PMS7003;13506;50.852;20.632;2023-02-01T01:40:44;6.00;3.00;0.00
21358;PMS7003;13506;50.852;20.632;2023-02-01T01:43:13;1.00;1.00;0.00
21358;PMS7003;13506;50.852;20.632;2023-02-01T01:45:43;3.25;3.00;0.00
21358;PMS7003;13506;50.852;20.632;2023-02-01T01:48:12;1.75;1.00;0.00
21358;PMS7003;13506;50.852;20.632;2023-02-01T01:50:46;4.50;3.00;1.00
21358;PMS7003;13506;50.852;20.632;2023-02-01T01:53:20;1.00;1.00;0.00
21358;PMS7003;13506;50.852;20.632;2023-02-01T01:55:52;3.75;3.00;0.00
21358;PMS7003;13506;50.852;20.632;2023-02-01T01:58:23;4.50;3.00;0.00
21358;PMS7003;13506;50.852;20.632;2023-02-01T02:00:54;1.50;1.50;0.00
21358;PMS7003;13506;50.852;20.632;2023-02-01T02:03:23;3.00;3.00;0.00
21358;PMS7003;13506;50.852;20.632;2023-02-01T02:05:59;1.00;1.00;0.00
21358;PMS7003;13506;50.852;20.632;2023-02-01T02:08:31;1.00;1.00;0.00
21358;PMS7003;13506;50.852;20.632;2023-02-01T02:10:59;2.50;2.50;0.00
21358;PMS7003;13506;50.852;20.632;2023-02-01T02:13:27;1.00;1.00;0.00
21358;PMS7003;13506;50.852;20.632;2023-02-01T02:16:08;1.75;1.00;0.00
21358;PMS7003;13506;50.852;20.632;2023-02-01T02:18:55;2.00;1.50;0.00
21358;PMS7003;13506;50.852;20.632;2023-02-01T02:21:52;3.00;3.00;0.25
21358;PMS7003;13506;50.852;20.632;2023-02-01T02:28:18;3.00;3.00;0.00
21358;PMS7003;13506;50.852;20.632;2023-02-01T02:31:22;3.50;3.00;0.00
21358;PMS7003;13506;50.852;20.632;2023-02-01T02:34:10;3.50;3.50;0.00
21358;PMS7003;13506;50.852;20.632;2023-02-01T02:36:49;3.00;3.00;0.75
21358;PMS7003;13506;50.852;20.632;2023-02-01T02:39:34;3.00;3.00;0.00
21358;PMS7003;13506;50.852;20.632;2023-02-01T02:42:13;4.00;4.00;0.50
21358;PMS7003;13506;50.852;20.632;2023-02-01T02:45:11;1.00;1.00;0.00
21358;PMS7003;13506;50.852;20.632;2023-02-01T02:48:03;3.00;3.00;0.25
21358;PMS7003;13506;50.852;20.632;2023-02-01T02:50:41;3.00;3.00;0.00
21358;PMS7003;13506;50.852;20.632;2023-02-01T02:53:34;3.00;3.00;0.00
21358;PMS7003;13506;50.852;20.632;2023-02-01T02:56:25;2.00;1.00;0.00
21358;PMS7003;13506;50.852;20.632;2023-02-01T02:59:12;1.00;1.00;0.00
21358;PMS7003;13506;50.852;20.632;2023-02-01T03:02:01;3.00;3.00;0.00
21358;PMS7003;13506;50.852;20.632;2023-02-01T03:04:51;3.00;3.00;0.00
21358;PMS7003;13506;50.852;20.632;2023-02-01T03:10:24;3.75;1.50;0.00
21358;PMS7003;13506;50.852;20.632;2023-02-01T03:13:02;3.00;3.00;0.00
21358;PMS7003;13506;50.852;20.632;2023-02-01T03:15:36;2.50;2.50;0.00
21358;PMS7003;13506;50.852;20.632;2023-02-01T03:18:11;3.75;3.00;0.00
21358;PMS7003;13506;50.852;20.632;2023-02-01T03:20:46;4.25;4.00;1.00
21358;PMS7003;13506;50.852;20.632;2023-02-01T03:23:21;3.00;2.00;0.00
21358;PMS7003;13506;50.852;20.632;2023-02-01T03:25:56;3.00;2.50;0.00
21358;PMS7003;13506;50.852;20.632;2023-02-01T03:28:28;3.00;3.00;0.25
21358;PMS7003;13506;50.852;20.632;2023-02-01T03:31:02;3.00;3.00;0.00
21358;PMS7003;13506;50.852;20.632;2023-02-01T03:33:30;3.00;3.00;0.00
21358;PMS7003;13506;50.852;20.632;2023-02-01T03:36:03;1.00;1.00;0.00
21358;PMS7003;13506;50.852;20.632;2023-02-01T03:38:45;3.00;3.00;0.00
21358;PMS7003;13506;50.852;20.632;2023-02-01T03:41:22;5.00;3.00;0.00
21358;PMS7003;13506;50.852;20.632;2023-02-01T03:43:55;2.50;1.00;0.00
21358;PMS7003;13506;50.852;20.632;2023-02-01T03:46:32;3.50;3.50;1.00
21358;PMS7003;13506;50.852;20.632;2023-02-01T03:49:05;1.50;1.50;0.00
21358;PMS7003;13506;50.852;20.632;2023-02-01T03:51:38;3.00;3.00;0.00
21358;PMS7003;13506;50.852;20.632;2023-02-01T03:54:11;3.00;3.00;0.00
21358;PMS7003;13506;50.852;20.632;2023-02-01T03:56:42;1.00;1.00;0.00
21358;PMS7003;13506;50.852;20.632;2023-02-01T03:59:14;3.00;3.00;0.00
21358;PMS7003;13506;50.852;20.632;2023-02-01T04:01:42;4.00;2.00;0.00
21358;PMS7003;13506;50.852;20.632;2023-02-01T04:04:10;3.75;3.00;0.00
21358;PMS7003;13506;50.852;20.632;2023-02-01T04:06:46;4.50;3.25;0.00
21358;PMS7003;13506;50.852;20.632;2023-02-01T04:09:15;8.25;5.25;1.00
21358;PMS7003;13506;50.852;20.632;2023-02-01T04:11:44;4.75;2.50;0.00
21358;PMS7003;13506;50.852;20.632;2023-02-01T04:14:11;3.00;3.00;0.00
21358;PMS7003;13506;50.852;20.632;2023-02-01T04:16:39;3.25;3.00;0.00
21358;PMS7003;13506;50.852;20.632;2023-02-01T04:19:07;4.00;3.00;0.00
21358;PMS7003;13506;50.852;20.632;2023-02-01T04:21:35;2.75;2.00;0.00
21358;PMS7003;13506;50.852;20.632;2023-02-01T04:24:03;1.00;1.00;0.00
21358;PMS7003;13506;50.852;20.632;2023-02-01T04:26:34;3.50;3.50;0.00
21358;PMS7003;13506;50.852;20.632;2023-02-01T04:29:02;3.50;3.50;0.00
21358;PMS7003;13506;50.852;20.632;2023-02-01T04:31:30;2.50;2.50;0.00
21358;PMS7003;13506;50.852;20.632;2023-02-01T04:33:58;1.00;1.00;0.00
21358;PMS7003;13506;50.852;20.632;2023-02-01T04:36:26;1.00;1.00;0.00
21358;PMS7003;13506;50.852;20.632;2023-02-01T04:38:53;3.00;3.00;0.00
21358;PMS7003;13506;50.852;20.632;2023-02-01T04:41:21;1.50;1.50;0.00
21358;PMS7003;13506;50.852;20.632;2023-02-01T04:43:50;3.00;3.00;0.00
21358;PMS7003;13506;50.852;20.632;2023-02-01T04:46:19;3.25;3.25;0.00
21358;PMS7003;13506;50.852;20.632;2023-02-01T04:48:46;3.50;3.50;0.00
21358;PMS7003;13506;50.852;20.632;2023-02-01T04:51:14;3.00;3.00;0.25
21358;PMS7003;13506;50.852;20.632;2023-02-01T04:53:44;3.75;3.00;0.00
21358;PMS7003;13506;50.852;20.632;2023-02-01T04:56:12;3.25;3.00;0.00
21358;PMS7003;13506;50.852;20.632;2023-02-01T04:58:39;6.00;6.00;0.00
21358;PMS7003;13506;50.852;20.632;2023-02-01T05:01:09;3.00;3.00;0.00
21358;PMS7003;13506;50.852;20.632;2023-02-01T05:03:37;3.00;3.00;0.50
21358;PMS7003;13506;50.852;20.632;2023-02-01T05:06:04;1.00;1.00;0.00
21358;PMS7003;13506;50.852;20.632;2023-02-01T05:08:32;3.00;3.00;0.00
21358;PMS7003;13506;50.852;20.632;2023-02-01T05:11:01;3.00;3.00;0.00
21358;PMS7003;13506;50.852;20.632;2023-02-01T05:13:29;6.00;4.00;1.00
21358;PMS7003;13506;50.852;20.632;2023-02-01T05:16:16;6.00;4.00;1.00
21358;PMS7003;13506;50.852;20.632;2023-02-01T05:18:44;3.00;3.00;1.00
21358;PMS7003;13506;50.852;20.632;2023-02-01T05:21:12;1.50;1.50;0.00
21358;PMS7003;13506;50.852;20.632;2023-02-01T05:23:40;3.00;3.00;0.00
21358;PMS7003;13506;50.852;20.632;2023-02-01T05:26:22;6.00;1.50;0.00
21358;PMS7003;13506;50.852;20.632;2023-02-01T05:28:50;1.50;1.50;0.00
21358;PMS7003;13506;50.852;20.632;2023-02-01T05:31:20;4.00;1.00;0.00
21358;PMS7003;13506;50.852;20.632;2023-02-01T05:33:48;6.50;3.00;0.00
21358;PMS7003;13506;50.852;20.632;2023-02-01T05:36:16;3.75;3.00;0.00
21358;PMS7003;13506;50.852;20.632;2023-02-01T05:38:44;1.50;1.50;0.00
21358;PMS7003;13506;50.852;20.632;2023-02-01T05:41:12;4.00;4.00;0.50
21358;PMS7003;13506;50.852;20.632;2023-02-01T05:43:40;3.00;3.00;0.00
21358;PMS7003;13506;50.852;20.632;2023-02-01T05:46:08;3.00;3.00;0.00
21358;PMS7003;13506;50.852;20.632;2023-02-01T05:48:39;3.00;3.00;0.25
21358;PMS7003;13506;50.852;20.632;2023-02-01T05:51:08;6.00;3.00;0.00
21358;PMS7003;13506;50.852;20.632;2023-02-01T05:53:36;7.50;4.50;1.00
21358;PMS7003;13506;50.852;20.632;2023-02-01T05:56:05;3.75;3.75;1.00
21358;PMS7003;13506;50.852;20.632;2023-02-01T05:58:33;5.00;3.00;0.00
21358;PMS7003;13506;50.852;20.632;2023-02-01T06:01:02;3.00;1.00;0.00
21358;PMS7003;13506;50.852;20.632;2023-02-01T06:03:30;5.00;3.25;0.00
21358;PMS7003;13506;50.852;20.632;2023-02-01T06:06:01;2.25;2.25;0.25
21358;PMS7003;13506;50.852;20.632;2023-02-01T06:08:29;4.00;3.25;0.00
21358;PMS7003;13506;50.852;20.632;2023-02-01T06:10:58;10.00;10.00;4.50
21358;PMS7003;13506;50.852;20.632;2023-02-01T06:13:26;3.00;3.00;0.00
21358;PMS7003;13506;50.852;20.632;2023-02-01T06:15:54;3.00;3.00;0.00
21358;PMS7003;13506;50.852;20.632;2023-02-01T06:18:22;6.00;4.00;0.25
21358;PMS7003;13506;50.852;20.632;2023-02-01T06:20:54;3.00;3.00;0.00
21358;PMS7003;13506;50.852;20.632;2023-02-01T06:23:24;4.00;3.00;0.00
21358;PMS7003;13506;50.852;20.632;2023-02-01T06:25:52;5.25;3.50;1.00
21358;PMS7003;13506;50.852;20.632;2023-02-01T06:28:24;3.00;3.00;0.00
21358;PMS7003;13506;50.852;20.632;2023-02-01T06:30:53;3.00;2.50;0.50
21358;PMS7003;13506;50.852;20.632;2023-02-01T06:33:21;4.00;4.00;1.00
21358;PMS7003;13506;50.852;20.632;2023-02-01T06:35:56;3.00;3.00;0.00
21358;PMS7003;13506;50.852;20.632;2023-02-01T06:38:26;8.00;6.00;3.00
21358;PMS7003;13506;50.852;20.632;2023-02-01T06:40:55;4.75;3.75;0.50
21358;PMS7003;13506;50.852;20.632;2023-02-01T06:43:25;3.25;1.50;0.00
21358;PMS7003;13506;50.852;20.632;2023-02-01T06:45:58;3.50;3.00;0.00
21358;PMS7003;13506;50.852;20.632;2023-02-01T06:48:27;4.00;4.00;0.50
21358;PMS7003;13506;50.852;20.632;2023-02-01T06:50:55;4.50;4.50;1.50
21358;PMS7003;13506;50.852;20.632;2023-02-01T06:53:23;3.25;3.25;0.00
21358;PMS7003;13506;50.852;20.632;2023-02-01T06:55:53;4.00;4.00;0.00
21358;PMS7003;13506;50.852;20.632;2023-02-01T06:58:22;3.00;3.00;0.50
21358;PMS7003;13506;50.852;20.632;2023-02-01T07:00:51;4.00;4.00;0.75
21358;PMS7003;13506;50.852;20.632;2023-02-01T07:03:19;4.00;4.00;1.00
21358;PMS7003;13506;50.852;20.632;2023-02-01T07:05:47;1.00;1.00;0.00
21358;PMS7003;13506;50.852;20.632;2023-02-01T07:08:15;4.00;3.25;0.00
21358;PMS7003;13506;50.852;20.632;2023-02-01T07:10:43;3.00;3.00;0.25
21358;PMS7003;13506;50.852;20.632;2023-02-01T07:13:12;2.50;2.50;0.00
21358;PMS7003;13506;50.852;20.632;2023-02-01T07:15:40;7.00;5.50;2.00
21358;PMS7003;13506;50.852;20.632;2023-02-01T07:18:08;6.00;6.00;1.00
21358;PMS7003;13506;50.852;20.632;2023-02-01T07:20:36;4.00;4.00;1.00
21358;PMS7003;13506;50.852;20.632;2023-02-01T07:23:04;5.50;3.75;0.50
21358;PMS7003;13506;50.852;20.632;2023-02-01T07:25:33;3.00;3.00;0.00
21358;PMS7003;13506;50.852;20.632;2023-02-01T07:28:02;5.50;5.50;1.00
21358;PMS7003;13506;50.852;20.632;2023-02-01T07:30:31;4.00;4.00;0.00
21358;PMS7003;13506;50.852;20.632;2023-02-01T07:32:59;7.50;3.75;0.00
21358;PMS7003;13506;50.852;20.632;2023-02-01T07:35:27;7.00;3.00;0.00
21358;PMS7003;13506;50.852;20.632;2023-02-01T07:37:56;3.75;3.50;0.25
21358;PMS7003;13506;50.852;20.632;2023-02-01T07:40:25;3.25;3.00;0.00
21358;PMS7003;13506;50.852;20.632;2023-02-01T07:42:54;4.00;3.00;0.00
21358;PMS7003;13506;50.852;20.632;2023-02-01T07:45:22;5.50;4.75;2.00
21358;PMS7003;13506;50.852;20.632;2023-02-01T07:47:52;7.50;5.50;1.00
21358;PMS7003;13506;50.852;20.632;2023-02-01T07:50:20;4.00;4.00;1.00
21358;PMS7003;13506;50.852;20.632;2023-02-01T07:52:48;5.25;4.50;1.00
21358;PMS7003;13506;50.852;20.632;2023-02-01T07:55:16;4.00;4.00;1.00
21358;PMS7003;13506;50.852;20.632;2023-02-01T07:57:44;9.00;8.50;2.00
21358;PMS7003;13506;50.852;20.632;2023-02-01T08:00:13;8.25;8.00;1.50
21358;PMS7003;13506;50.852;20.632;2023-02-01T08:03:00;3.00;3.00;0.00
21358;PMS7003;13506;50.852;20.632;2023-02-01T08:05:30;4.00;4.00;1.00
21358;PMS7003;13506;50.852;20.632;2023-02-01T08:07:58;4.25;4.00;1.00
21358;PMS7003;13506;50.852;20.632;2023-02-01T08:10:26;5.50;3.00;0.00
21358;PMS7003;13506;50.852;20.632;2023-02-01T08:12:57;3.50;3.25;0.75
21358;PMS7003;13506;50.852;20.632;2023-02-01T08:15:26;8.00;6.00;3.00
21358;PMS7003;13506;50.852;20.632;2023-02-01T08:17:55;3.00;3.00;0.00
21358;PMS7003;13506;50.852;20.632;2023-02-01T08:20:25;7.00;6.00;1.50
21358;PMS7003;13506;50.852;20.632;2023-02-01T08:22:53;9.50;8.00;1.00
21358;PMS7003;13506;50.852;20.632;2023-02-01T08:25:22;4.75;3.75;1.00
21358;PMS7003;13506;50.852;20.632;2023-02-01T08:27:50;7.50;4.00;2.50
21358;PMS7003;13506;50.852;20.632;2023-02-01T08:30:20;5.50;5.50;1.50
21358;PMS7003;13506;50.852;20.632;2023-02-01T08:32:48;7.00;6.00;2.50
21358;PMS7003;13506;50.852;20.632;2023-02-01T08:35:16;6.50;4.00;1.00
21358;PMS7003;13506;50.852;20.632;2023-02-01T08:37:45;7.00;7.00;1.00
21358;PMS7003;13506;50.852;20.632;2023-02-01T08:40:13;8.00;8.00;1.00
21358;PMS7003;13506;50.852;20.632;2023-02-01T08:42:41;6.00;6.00;2.50
21358;PMS7003;13506;50.852;20.632;2023-02-01T08:45:20;7.50;4.00;1.00
21358;PMS7003;13506;50.852;20.632;2023-02-01T08:47:50;7.00;3.75;0.75
21358;PMS7003;13506;50.852;20.632;2023-02-01T08:50:18;4.00;4.00;0.25
21358;PMS7003;13506;50.852;20.632;2023-02-01T08:52:49;9.75;7.00;1.00
21358;PMS7003;13506;50.852;20.632;2023-02-01T08:55:17;6.00;4.50;1.00
21358;PMS7003;13506;50.852;20.632;2023-02-01T08:57:45;6.00;4.50;1.50
21358;PMS7003;13506;50.852;20.632;2023-02-01T09:00:15;5.25;4.50;1.00
21358;PMS7003;13506;50.852;20.632;2023-02-01T09:02:44;6.00;6.00;1.00
21358;PMS7003;13506;50.852;20.632;2023-02-01T09:05:12;7.00;6.00;2.00
21358;PMS7003;13506;50.852;20.632;2023-02-01T09:07:41;4.00;4.00;1.00
21358;PMS7003;13506;50.852;20.632;2023-02-01T09:10:11;6.75;6.50;2.00
21358;PMS7003;13506;50.852;20.632;2023-02-01T09:12:40;6.50;6.50;1.50
21358;PMS7003;13506;50.852;20.632;2023-02-01T09:15:08;10.50;8.00;2.50
21358;PMS7003;13506;50.852;20.632;2023-02-01T09:17:36;6.00;6.00;2.00
21358;PMS7003;13506;50.852;20.632;2023-02-01T09:20:04;8.25;4.00;1.00
21358;PMS7003;13506;50.852;20.632;2023-02-01T09:22:33;6.00;4.00;0.25
21358;PMS7003;13506;50.852;20.632;2023-02-01T09:25:01;7.00;5.00;1.00
21358;PMS7003;13506;50.852;20.632;2023-02-01T09:27:31;8.00;5.50;1.00
21358;PMS7003;13506;50.852;20.632;2023-02-01T09:30:00;7.00;6.00;2.00
21358;PMS7003;13506;50.852;20.632;2023-02-01T09:32:27;6.00;5.00;1.00
21358;PMS7003;13506;50.852;20.632;2023-02-01T09:34:55;6.50;4.50;1.00
21358;PMS7003;13506;50.852;20.632;2023-02-01T09:37:23;7.50;6.00;1.00
21358;PMS7003;13506;50.852;20.632;2023-02-01T09:39:52;6.50;6.50;1.50
21358;PMS7003;13506;50.852;20.632;2023-02-01T09:42:21;6.00;6.00;3.00
21358;PMS7003;13506;50.852;20.632;2023-02-01T09:45:16;6.50;6.00;1.00
21358;PMS7003;13506;50.852;20.632;2023-02-01T09:47:52;7.00;7.00;3.00
21358;PMS7003;13506;50.852;20.632;2023-02-01T09:50:27;4.00;4.00;1.00
21358;PMS7003;13506;50.852;20.632;2023-02-01T09:53:01;7.50;7.00;3.00
21358;PMS7003;13506;50.852;20.632;2023-02-01T09:55:35;8.75;7.50;1.00
21358;PMS7003;13506;50.852;20.632;2023-02-01T09:58:13;6.00;6.00;3.00
21358;PMS7003;13506;50.852;20.632;2023-02-01T10:00:50;8.25;6.00;2.00
21358;PMS7003;13506;50.852;20.632;2023-02-01T10:03:22;3.75;3.75;0.75
21358;PMS7003;13506;50.852;20.632;2023-02-01T10:06:08;6.25;6.25;3.00
21358;PMS7003;13506;50.852;20.632;2023-02-01T10:09:06;8.00;6.00;3.00
21358;PMS7003;13506;50.852;20.632;2023-02-01T10:11:53;7.50;6.00;1.00
21358;PMS7003;13506;50.852;20.632;2023-02-01T10:14:49;8.25;8.25;3.00
21358;PMS7003;13506;50.852;20.632;2023-02-01T10:17:30;9.50;9.50;3.50
21358;PMS7003;13506;50.852;20.632;2023-02-01T10:20:16;6.00;6.00;1.00
21358;PMS7003;13506;50.852;20.632;2023-02-01T10:22:54;5.00;5.00;1.00
21358;PMS7003;13506;50.852;20.632;2023-02-01T10:25:36;7.50;4.50;1.00
21358;PMS7003;13506;50.852;20.632;2023-02-01T10:28:11;4.00;4.00;1.00
21358;PMS7003;13506;50.852;20.632;2023-02-01T10:30:45;6.00;6.00;1.50
21358;PMS7003;13506;50.852;20.632;2023-02-01T10:33:15;7.00;7.00;2.50
21358;PMS7003;13506;50.852;20.632;2023-02-01T10:35:45;8.00;8.00;3.50
21358;PMS7003;13506;50.852;20.632;2023-02-01T10:38:21;4.00;4.00;1.00
21358;PMS7003;13506;50.852;20.632;2023-02-01T10:40:53;6.00;6.00;3.00
21358;PMS7003;13506;50.852;20.632;2023-02-01T10:43:28;6.75;6.00;1.00
21358;PMS7003;13506;50.852;20.632;2023-02-01T10:45:58;7.00;6.00;1.00
21358;PMS7003;13506;50.852;20.632;2023-02-01T10:48:26;6.00;6.00;1.00
21358;PMS7003;13506;50.852;20.632;2023-02-01T10:50:56;7.50;4.00;1.00
21358;PMS7003;13506;50.852;20.632;2023-02-01T10:53:29;14.50;8.25;3.00
21358;PMS7003;13506;50.852;20.632;2023-02-01T10:56:05;4.00;4.00;1.00
21358;PMS7003;13506;50.852;20.632;2023-02-01T10:58:35;12.00;9.50;3.75
21358;PMS7003;13506;50.852;20.632;2023-02-01T11:01:15;9.25;6.75;3.00
21358;PMS7003;13506;50.852;20.632;2023-02-01T11:03:51;7.75;7.00;2.50
21358;PMS7003;13506;50.852;20.632;2023-02-01T11:06:24;6.00;6.00;1.00
21358;PMS7003;13506;50.852;20.632;2023-02-01T11:08:56;7.00;5.50;2.00
21358;PMS7003;13506;50.852;20.632;2023-02-01T11:11:27;9.00;9.00;3.00
21358;PMS7003;13506;50.852;20.632;2023-02-01T11:13:56;6.00;6.00;3.00
21358;PMS7003;13506;50.852;20.632;2023-02-01T11:16:32;6.25;6.25;1.50
21358;PMS7003;13506;50.852;20.632;2023-02-01T11:19:03;7.75;6.75;3.00
21358;PMS7003;13506;50.852;20.632;2023-02-01T11:21:31;5.50;5.50;1.00
21358;PMS7003;13506;50.852;20.632;2023-02-01T11:24:00;8.50;8.50;3.00
21358;PMS7003;13506;50.852;20.632;2023-02-01T11:26:30;5.50;4.00;1.00
21358;PMS7003;13506;50.852;20.632;2023-02-01T11:29:00;6.25;6.00;1.00
21358;PMS7003;13506;50.852;20.632;2023-02-01T11:31:33;10.50;6.00;1.00
21358;PMS7003;13506;50.852;20.632;2023-02-01T11:34:05;8.50;8.00;1.00
21358;PMS7003;13506;50.852;20.632;2023-02-01T11:36:39;4.00;4.00;1.50
21358;PMS7003;13506;50.852;20.632;2023-02-01T11:39:09;9.00;9.00;3.00
21358;PMS7003;13506;50.852;20.632;2023-02-01T11:41:55;6.00;6.00;3.00
21358;PMS7003;13506;50.852;20.632;2023-02-01T11:44:30;6.50;6.00;1.50
21358;PMS7003;13506;50.852;20.632;2023-02-01T11:47:22;7.50;6.25;1.00
21358;PMS7003;13506;50.852;20.632;2023-02-01T11:49:53;9.00;7.00;1.00
21358;PMS7003;13506;50.852;20.632;2023-02-01T11:52:27;4.50;4.50;1.00
21358;PMS7003;13506;50.852;20.632;2023-02-01T11:55:15;7.25;6.00;1.00
21358;PMS7003;13506;50.852;20.632;2023-02-01T11:58:15;6.00;4.50;1.00
21358;PMS7003;13506;50.852;20.632;2023-02-01T12:00:59;8.50;7.00;3.00
21358;PMS7003;13506;50.852;20.632;2023-02-01T12:03:48;4.00;4.00;1.00
21358;PMS7003;13506;50.852;20.632;2023-02-01T12:06:45;10.50;6.75;1.50
21358;PMS7003;13506;50.852;20.632;2023-02-01T12:09:29;4.50;3.50;1.00
21358;PMS7003;13506;50.852;20.632;2023-02-01T12:12:17;5.00;5.00;1.00
21358;PMS7003;13506;50.852;20.632;2023-02-01T12:14:56;3.75;3.75;1.00
21358;PMS7003;13506;50.852;20.632;2023-02-01T12:21:20;5.50;5.50;1.00
21358;PMS7003;13506;50.852;20.632;2023-02-01T12:24:25;6.50;6.00;1.00
21358;PMS7003;13506;50.852;20.632;2023-02-01T12:27:42;7.50;7.50;3.00
21358;PMS7003;13506;50.852;20.632;2023-02-01T12:30:35;6.75;4.00;1.00
21358;PMS7003;13506;50.852;20.632;2023-02-01T12:33:33;6.00;5.50;1.50
21358;PMS7003;13506;50.852;20.632;2023-02-01T12:36:16;6.75;3.50;0.50
21358;PMS7003;13506;50.852;20.632;2023-02-01T12:38:53;5.50;5.50;1.00
21358;PMS7003;13506;50.852;20.632;2023-02-01T12:44:25;6.00;4.50;1.00
21358;PMS7003;13506;50.852;20.632;2023-02-01T12:47:05;3.50;3.50;1.00
21358;PMS7003;13506;50.852;20.632;2023-02-01T12:49:44;3.50;3.50;0.00
21358;PMS7003;13506;50.852;20.632;2023-02-01T12:52:20;6.00;6.00;1.50
21358;PMS7003;13506;50.852;20.632;2023-02-01T12:55:02;3.50;3.50;0.75
21358;PMS7003;13506;50.852;20.632;2023-02-01T12:57:38;4.50;4.00;1.00
21358;PMS7003;13506;50.852;20.632;2023-02-01T13:00:14;7.00;6.00;1.00
21358;PMS7003;13506;50.852;20.632;2023-02-01T13:02:52;4.50;4.50;1.00
21358;PMS7003;13506;50.852;20.632;2023-02-01T13:05:28;6.75;4.00;2.00
21358;PMS7003;13506;50.852;20.632;2023-02-01T13:08:06;8.50;6.75;3.00
21358;PMS7003;13506;50.852;20.632;2023-02-01T13:10:38;5.00;4.50;1.00
21358;PMS7003;13506;50.852;20.632;2023-02-01T13:13:14;6.00;4.00;1.00
21358;PMS7003;13506;50.852;20.632;2023-02-01T13:15:49;7.00;7.00;2.00
21358;PMS7003;13506;50.852;20.632;2023-02-01T13:18:26;6.75;6.25;1.50
21358;PMS7003;13506;50.852;20.632;2023-02-01T13:21:02;6.00;6.00;3.00
21358;PMS7003;13506;50.852;20.632;2023-02-01T13:23:36;6.00;6.00;2.50
21358;PMS7003;13506;50.852;20.632;2023-02-01T13:26:07;3.75;3.75;1.00
21358;PMS7003;13506;50.852;20.632;2023-02-01T13:28:36;10.00;7.00;3.00
21358;PMS7003;13506;50.852;20.632;2023-02-01T13:34:36;8.00;6.00;2.00
21358;PMS7003;13506;50.852;20.632;2023-02-01T13:37:28;6.00;5.50;1.50
21358;PMS7003;13506;50.852;20.632;2023-02-01T13:40:49;8.25;6.25;1.00
21358;PMS7003;13506;50.852;20.632;2023-02-01T13:43:29;8.50;6.50;1.00
21358;PMS7003;13506;50.852;20.632;2023-02-01T13:46:02;6.00;6.00;1.00
21358;PMS7003;13506;50.852;20.632;2023-02-01T13:48:36;10.00;8.50;3.25
21358;PMS7003;13506;50.852;20.632;2023-02-01T13:51:08;8.50;5.00;1.00
21358;PMS7003;13506;50.852;20.632;2023-02-01T13:53:36;5.00;5.00;2.00
21358;PMS7003;13506;50.852;20.632;2023-02-01T13:56:12;4.50;4.50;1.00
21358;PMS7003;13506;50.852;20.632;2023-02-01T13:58:44;7.75;4.00;1.00
21358;PMS7003;13506;50.852;20.632;2023-02-01T14:07:21;5.00;5.00;1.00
21358;PMS7003;13506;50.852;20.632;2023-02-01T14:09:49;7.75;7.25;2.50
21358;PMS7003;13506;50.852;20.632;2023-02-01T14:15:17;9.00;7.00;2.50
21358;PMS7003;13506;50.852;20.632;2023-02-01T14:17:51;6.00;6.00;1.00
21358;PMS7003;13506;50.852;20.632;2023-02-01T14:23:20;8.25;7.50;3.00
21358;PMS7003;13506;50.852;20.632;2023-02-01T14:31:53;9.50;9.00;3.50
21358;PMS7003;13506;50.852;20.632;2023-02-01T14:34:31;8.75;6.25;3.00
21358;PMS7003;13506;50.852;20.632;2023-02-01T14:37:09;14.25;7.50;1.00
21358;PMS7003;13506;50.852;20.632;2023-02-01T14:39:52;10.00;10.00;4.25
21358;PMS7003;13506;50.852;20.632;2023-02-01T14:42:27;9.25;8.00;3.00
21358;PMS7003;13506;50.852;20.632;2023-02-01T14:51:13;7.75;7.50;3.00
21358;PMS7003;13506;50.852;20.632;2023-02-01T14:53:44;10.00;8.50;3.25
21358;PMS7003;13506;50.852;20.632;2023-02-01T14:56:14;9.50;7.75;3.00
21358;PMS7003;13506;50.852;20.632;2023-02-01T14:58:49;9.25;7.75;3.00
21358;PMS7003;13506;50.852;20.632;2023-02-01T15:01:25;11.50;10.50;4.00
21358;PMS7003;13506;50.852;20.632;2023-02-01T15:03:56;12.25;11.00;5.50
21358;PMS7003;13506;50.852;20.632;2023-02-01T15:06:32;7.00;7.00;3.50
21358;PMS7003;13506;50.852;20.632;2023-02-01T15:09:07;10.50;9.00;3.50
21358;PMS7003;13506;50.852;20.632;2023-02-01T15:11:58;9.50;9.50;4.00
21358;PMS7003;13506;50.852;20.632;2023-02-01T15:14:31;11.00;8.50;3.00
21358;PMS7003;13506;50.852;20.632;2023-02-01T15:17:03;12.25;10.00;4.00
21358;PMS7003;13506;50.852;20.632;2023-02-01T15:19:53;11.25;10.00;4.00
21358;PMS7003;13506;50.852;20.632;2023-02-01T15:22:22;9.50;9.50;4.50
21358;PMS7003;13506;50.852;20.632;2023-02-01T15:24:51;9.25;8.75;4.00